createdAt,value
2023-02-06T00:00:25.185Z,0.07
2023-02-06T00:01:25.574Z,0.00
2023-02-06T00:02:24.901Z,0.00
2023-02-06T00:03:25.252Z,0.02
2023-02-06T00:04:24.674Z,0.00
2023-02-06T00:05:24.998Z,0.00
2023-02-06T00:06:26.320Z,0.00
2023-02-06T00:07:24.668Z,0.00
2023-02-06T00:08:25.064Z,0.00
2023-02-06T00:09:25.446Z,0.00
2023-02-06T00:10:24.733Z,0.00
2023-02-06T00:11:25.145Z,0.00
2023-02-06T00:12:26.436Z,0.00
2023-02-06T00:14:25.147Z,0.02
2023-02-06T00:15:24.503Z,0.05
2023-02-06T00:16:24.788Z,0.00
2023-02-06T00:17:26.088Z,0.01
2023-02-06T00:18:24.395Z,0.00
2023-02-06T00:19:24.767Z,0.00
2023-02-06T00:20:25.120Z,0.00
2023-02-06T00:21:24.398Z,0.00
2023-02-06T00:22:24.724Z,0.00
2023-02-06T00:23:26.015Z,0.02
2023-02-06T00:24:25.307Z,0.02
2023-02-06T00:25:24.692Z,0.00
2023-02-06T00:26:25.078Z,0.00
2023-02-06T00:27:24.349Z,0.00
2023-02-06T00:28:24.685Z,0.00
2023-02-06T00:29:25.064Z,0.02
2023-02-06T00:30:24.372Z,0.02
2023-02-06T00:31:24.794Z,0.02
2023-02-06T00:32:25.091Z,0.02
2023-02-06T00:33:24.357Z,0.00
2023-02-06T00:34:24.726Z,0.02
2023-02-06T00:35:26.070Z,0.00
2023-02-06T00:36:25.396Z,0.00
2023-02-06T00:37:24.847Z,0.00
2023-02-06T00:38:25.105Z,0.02
2023-02-06T00:39:25.152Z,0.00
2023-02-06T00:40:25.528Z,0.00
2023-02-06T00:41:24.938Z,0.00
2023-02-06T00:42:25.189Z,0.02
2023-02-06T00:43:24.695Z,0.02
2023-02-06T00:44:24.993Z,0.02
2023-02-06T00:45:24.462Z,0.00
2023-02-06T00:46:24.716Z,0.00
2023-02-06T00:47:25.060Z,0.05
2023-02-06T00:48:24.364Z,0.01
2023-02-06T00:49:24.779Z,0.00
2023-02-06T00:50:25.018Z,0.00
2023-02-06T00:51:24.460Z,0.02
2023-02-06T00:52:24.795Z,0.02
2023-02-06T00:53:24.129Z,0.02
2023-02-06T00:54:24.477Z,0.00
2023-02-06T00:55:24.928Z,0.00
2023-02-06T00:56:25.269Z,0.02
2023-02-06T00:57:24.603Z,0.00
2023-02-06T00:58:23.894Z,0.02
2023-02-06T00:59:24.249Z,0.01
2023-02-06T01:00:24.685Z,0.00
2023-02-06T01:01:24.042Z,0.00
2023-02-06T01:02:24.348Z,0.05
2023-02-06T01:03:24.683Z,0.02
2023-02-06T01:04:24.033Z,0.00
2023-02-06T01:05:24.412Z,0.02
2023-02-06T01:06:24.773Z,0.02
2023-02-06T01:07:24.070Z,0.01
2023-02-06T01:08:24.445Z,0.02
2023-02-06T01:09:23.898Z,0.00
2023-02-06T01:10:24.124Z,0.02
2023-02-06T01:11:25.444Z,0.00
2023-02-06T01:12:23.849Z,0.00
2023-02-06T01:13:24.163Z,0.00
2023-02-06T01:14:24.527Z,0.02
2023-02-06T01:15:23.847Z,0.00
2023-02-06T01:16:24.368Z,0.01
2023-02-06T01:17:24.628Z,0.00
2023-02-06T01:18:23.897Z,0.01
2023-02-06T01:19:24.302Z,0.00
2023-02-06T01:20:24.561Z,0.01
2023-02-06T01:21:23.986Z,0.00
2023-02-06T01:22:24.361Z,0.00
2023-02-06T01:23:23.966Z,0.00
2023-02-06T01:24:24.033Z,0.00
2023-02-06T01:25:25.367Z,0.00
2023-02-06T01:26:23.821Z,0.02
2023-02-06T01:27:25.057Z,0.01
2023-02-06T01:28:23.438Z,0.02
2023-02-06T01:29:23.842Z,0.02
2023-02-06T01:30:24.189Z,0.00
2023-02-06T01:31:24.495Z,0.00
2023-02-06T01:32:23.865Z,0.00
2023-02-06T01:33:24.256Z,0.02
2023-02-06T01:34:23.606Z,0.07
2023-02-06T01:35:24.037Z,0.02
2023-02-06T01:36:24.327Z,0.02
2023-02-06T01:37:23.686Z,0.00
2023-02-06T01:38:24.043Z,0.00
2023-02-06T01:39:24.425Z,0.05
2023-02-06T01:40:23.780Z,0.05
2023-02-06T01:41:24.405Z,0.00
2023-02-06T01:42:23.450Z,0.00
2023-02-06T01:43:23.836Z,0.02
2023-02-06T01:44:24.201Z,0.00
2023-02-06T01:45:23.535Z,0.00
2023-02-06T01:46:23.979Z,0.00
2023-02-06T01:47:24.321Z,0.00
2023-02-06T01:48:23.631Z,0.00
2023-02-06T01:49:24.064Z,0.02
2023-02-06T01:50:23.381Z,0.00
2023-02-06T01:51:24.714Z,0.02
2023-02-06T01:52:23.161Z,0.00
2023-02-06T01:53:23.498Z,0.00
2023-02-06T01:54:23.855Z,0.02
2023-02-06T01:55:23.160Z,0.00
2023-02-06T01:56:23.552Z,0.00
2023-02-06T01:57:23.995Z,0.02
2023-02-06T01:58:23.236Z,0.02
2023-02-06T01:59:23.611Z,0.00
2023-02-06T02:00:24.037Z,0.05
2023-02-06T02:01:23.315Z,0.00
2023-02-06T02:02:23.706Z,0.02
2023-02-06T02:03:23.062Z,0.02
2023-02-06T02:04:23.390Z,0.00
2023-02-06T02:05:23.744Z,0.01
2023-02-06T02:06:23.071Z,0.00
2023-02-06T02:07:23.434Z,0.02
2023-02-06T02:08:23.832Z,0.02
2023-02-06T02:09:23.146Z,0.02
2023-02-06T02:10:23.569Z,0.01
2023-02-06T02:11:23.893Z,0.00
2023-02-06T02:12:23.267Z,0.02
2023-02-06T02:13:23.614Z,0.07
2023-02-06T02:14:23.030Z,0.02
2023-02-06T02:15:23.326Z,0.02
2023-02-06T02:16:23.758Z,0.02
2023-02-06T02:17:23.035Z,0.07
2023-02-06T02:18:24.357Z,0.00
2023-02-06T02:19:23.841Z,0.00
2023-02-06T02:20:23.072Z,0.07
2023-02-06T02:21:23.452Z,0.02
2023-02-06T02:22:22.799Z,0.02
2023-02-06T02:23:23.152Z,0.02
2023-02-06T02:24:24.472Z,0.00
2023-02-06T02:25:22.917Z,0.02
2023-02-06T02:26:25.072Z,0.02
2023-02-06T02:27:23.603Z,0.02
2023-02-06T02:28:22.949Z,0.01
2023-02-06T02:29:23.338Z,0.02
2023-02-06T02:30:23.666Z,0.07
2023-02-06T02:31:23.147Z,0.01
2023-02-06T02:32:23.405Z,0.02
2023-02-06T02:33:22.726Z,0.02
2023-02-06T02:34:23.113Z,0.01
2023-02-06T02:35:23.494Z,0.01
2023-02-06T02:36:22.851Z,0.01
2023-02-06T02:37:23.255Z,0.02
2023-02-06T02:38:22.550Z,0.01
2023-02-06T02:39:22.920Z,0.02
2023-02-06T02:40:23.304Z,0.01
2023-02-06T02:41:22.639Z,0.02
2023-02-06T02:43:23.431Z,0.02
2023-02-06T02:44:22.773Z,0.01
2023-02-06T02:45:23.127Z,0.02
2023-02-06T02:46:22.486Z,0.02
2023-02-06T02:47:22.883Z,0.02
2023-02-06T02:48:23.276Z,0.02
2023-02-06T02:49:22.669Z,0.01
2023-02-06T02:50:22.980Z,0.02
2023-02-06T02:51:23.354Z,0.01
2023-02-06T02:52:22.694Z,0.02
2023-02-06T02:53:23.077Z,0.00
2023-02-06T02:54:22.400Z,0.02
2023-02-06T02:55:22.900Z,0.02
2023-02-06T02:56:23.156Z,0.00
2023-02-06T02:57:23.583Z,0.02
2023-02-06T02:58:22.898Z,0.02
2023-02-06T02:59:22.250Z,0.00
2023-02-06T03:00:22.657Z,0.00
2023-02-06T03:01:23.132Z,0.02
2023-02-06T03:02:22.415Z,0.00
2023-02-06T03:03:22.771Z,0.00
2023-02-06T03:04:23.167Z,0.00
2023-02-06T03:05:22.584Z,0.02
2023-02-06T03:06:22.962Z,0.02
2023-02-06T03:07:22.367Z,0.02
2023-02-06T03:08:22.703Z,0.01
2023-02-06T03:09:23.104Z,0.00
2023-02-06T03:10:22.451Z,0.07
2023-02-06T03:11:22.801Z,0.00
2023-02-06T03:12:22.170Z,0.00
2023-02-06T03:13:22.564Z,0.00
2023-02-06T03:14:22.907Z,0.02
2023-02-06T03:15:22.262Z,0.02
2023-02-06T03:16:22.699Z,0.07
2023-02-06T03:17:21.992Z,0.02
2023-02-06T03:18:22.411Z,0.07
2023-02-06T03:19:22.766Z,0.02
2023-02-06T03:20:22.148Z,0.02
2023-02-06T03:21:23.457Z,0.02
2023-02-06T03:22:22.902Z,0.01
2023-02-06T03:23:22.282Z,0.00
2023-02-06T03:24:22.663Z,0.07
2023-02-06T03:25:22.019Z,0.02
2023-02-06T03:26:22.424Z,0.01
2023-02-06T03:27:22.783Z,0.02
2023-02-06T03:28:22.113Z,0.07
2023-02-06T03:29:22.502Z,0.00
2023-02-06T03:30:22.211Z,0.02
2023-02-06T03:31:22.254Z,0.00
2023-02-06T03:32:22.624Z,0.02
2023-02-06T03:33:21.974Z,0.01
2023-02-06T03:34:22.353Z,0.02
2023-02-06T03:35:22.745Z,0.00
2023-02-06T03:36:22.063Z,0.01
2023-02-06T03:37:22.494Z,0.00
2023-02-06T03:38:21.814Z,0.00
2023-02-06T03:39:22.194Z,0.02
2023-02-06T03:40:22.604Z,0.02
2023-02-06T03:41:21.984Z,0.01
2023-02-06T03:42:22.319Z,0.07
2023-02-06T03:43:21.688Z,0.02
2023-02-06T03:44:22.063Z,0.02
2023-02-06T03:45:22.454Z,0.02
2023-02-06T03:46:21.842Z,0.02
2023-02-06T03:47:22.339Z,0.05
2023-02-06T03:48:22.592Z,0.00
2023-02-06T03:49:21.982Z,0.00
2023-02-06T03:50:22.363Z,0.00
2023-02-06T03:51:21.781Z,0.00
2023-02-06T03:52:22.138Z,0.00
2023-02-06T03:53:21.545Z,0.00
2023-02-06T03:54:21.897Z,0.00
2023-02-06T03:55:23.274Z,0.02
2023-02-06T03:56:22.610Z,0.02
2023-02-06T03:57:22.995Z,0.02
2023-02-06T03:58:24.440Z,0.02
2023-02-06T03:59:21.765Z,0.00
2023-02-06T04:00:22.166Z,0.02
2023-02-06T04:01:21.578Z,0.02
2023-02-06T04:02:21.905Z,0.02
2023-02-06T04:03:22.252Z,0.01
2023-02-06T04:04:21.682Z,0.01
2023-02-06T04:05:22.914Z,0.01
2023-02-06T04:06:22.358Z,0.02
2023-02-06T04:07:22.630Z,0.02
2023-02-06T04:08:22.059Z,0.02
2023-02-06T04:09:21.388Z,0.01
2023-02-06T04:10:21.813Z,0.02
2023-02-06T04:11:23.092Z,0.00
2023-02-06T04:12:21.490Z,0.06
2023-02-06T04:13:21.873Z,0.00
2023-02-06T04:14:22.230Z,0.00
2023-02-06T04:15:21.568Z,0.02
2023-02-06T04:16:22.012Z,0.01
2023-02-06T04:17:40.718Z,0.01
2023-02-06T04:18:23.669Z,0.01
2023-02-06T04:19:22.132Z,0.07
2023-02-06T04:20:21.460Z,0.07
2023-02-06T04:21:21.885Z,0.00
2023-02-06T04:22:21.274Z,0.00
2023-02-06T04:23:21.613Z,0.00
2023-02-06T04:24:22.056Z,0.02
2023-02-06T04:25:21.392Z,0.02
2023-02-06T04:26:21.825Z,0.02
2023-02-06T04:27:21.152Z,0.00
2023-02-06T04:28:21.694Z,0.07
2023-02-06T04:29:21.948Z,0.00
2023-02-06T04:30:21.373Z,0.02
2023-02-06T04:31:21.759Z,0.02
2023-02-06T04:32:22.149Z,0.01
2023-02-06T04:33:21.428Z,0.01
2023-02-06T04:34:22.123Z,0.01
2023-02-06T04:35:21.213Z,0.08
2023-02-06T04:36:21.574Z,0.02
2023-02-06T04:37:21.948Z,0.02
2023-02-06T04:38:21.267Z,0.07
2023-02-06T04:39:21.699Z,0.02
2023-02-06T04:40:21.091Z,0.02
2023-02-06T04:41:21.443Z,0.02
2023-02-06T04:42:22.794Z,0.01
2023-02-06T04:43:23.181Z,0.00
2023-02-06T04:44:21.564Z,0.01
2023-02-06T04:45:20.963Z,0.02
2023-02-06T04:46:21.397Z,0.00
2023-02-06T04:47:21.692Z,0.05
2023-02-06T04:48:21.104Z,0.00
2023-02-06T04:49:21.453Z,0.07
2023-02-06T04:50:20.835Z,0.02
2023-02-06T04:51:21.274Z,0.02
2023-02-06T04:52:21.646Z,0.02
2023-02-06T04:53:20.967Z,0.01
2023-02-06T04:54:21.379Z,0.05
2023-02-06T04:55:20.780Z,0.00
2023-02-06T04:56:21.199Z,0.02
2023-02-06T04:57:21.548Z,0.02
2023-02-06T04:58:20.938Z,0.00
2023-02-06T04:59:21.328Z,0.02
2023-02-06T05:00:20.713Z,0.02
2023-02-06T05:01:21.188Z,0.01
2023-02-06T05:02:21.616Z,0.02
2023-02-06T05:03:20.861Z,0.02
2023-02-06T05:04:21.266Z,0.00
2023-02-06T05:05:20.670Z,0.02
2023-02-06T05:06:21.067Z,0.02
2023-02-06T05:07:22.421Z,0.02
2023-02-06T05:08:20.884Z,0.02
2023-02-06T05:09:21.223Z,0.02
2023-02-06T05:10:20.633Z,0.01
2023-02-06T05:11:21.969Z,0.07
2023-02-06T05:12:22.375Z,0.02
2023-02-06T05:13:20.794Z,0.00
2023-02-06T05:14:21.262Z,0.01
2023-02-06T05:15:20.579Z,0.01
2023-02-06T05:16:21.940Z,0.02
2023-02-06T05:17:22.347Z,0.01
2023-02-06T05:18:21.762Z,0.02
2023-02-06T05:19:22.202Z,0.07
2023-02-06T05:20:20.591Z,0.02
2023-02-06T05:21:21.948Z,0.00
2023-02-06T05:22:20.382Z,0.01
2023-02-06T05:23:20.782Z,0.00
2023-02-06T05:24:22.141Z,0.00
2023-02-06T05:25:20.587Z,0.00
2023-02-06T05:26:21.031Z,0.00
2023-02-06T05:27:20.361Z,0.00
2023-02-06T05:28:21.782Z,0.00
2023-02-06T05:29:21.235Z,0.01
2023-02-06T05:30:20.585Z,0.01
2023-02-06T05:31:21.098Z,0.02
2023-02-06T05:32:20.455Z,0.01
2023-02-06T05:33:20.849Z,0.02
2023-02-06T05:34:21.238Z,0.00
2023-02-06T05:35:20.801Z,0.00
2023-02-06T05:36:21.069Z,0.06
2023-02-06T05:37:20.461Z,0.00
2023-02-06T05:38:21.060Z,0.01
2023-02-06T05:39:21.194Z,0.00
2023-02-06T05:40:20.653Z,0.01
2023-02-06T05:41:21.112Z,0.02
2023-02-06T05:42:20.499Z,0.02
2023-02-06T05:43:20.983Z,0.02
2023-02-06T05:44:20.437Z,0.00
2023-02-06T05:45:20.869Z,0.01
2023-02-06T05:46:20.111Z,0.02
2023-02-06T05:47:21.477Z,0.02
2023-02-06T05:48:21.897Z,0.02
2023-02-06T05:49:20.309Z,0.02
2023-02-06T05:50:20.798Z,0.02
2023-02-06T05:51:20.998Z,0.02
2023-02-06T05:52:20.484Z,0.02
2023-02-06T05:53:20.882Z,0.01
2023-02-06T05:54:20.320Z,0.07
2023-02-06T05:55:20.722Z,0.02
2023-02-06T05:56:21.115Z,0.00
2023-02-06T05:57:20.522Z,0.02
2023-02-06T05:58:20.910Z,0.02
2023-02-06T05:59:20.296Z,0.01
2023-02-06T06:00:20.814Z,0.02
2023-02-06T06:01:20.125Z,0.02
2023-02-06T06:02:20.514Z,0.00
2023-02-06T06:03:19.912Z,0.02
2023-02-06T06:04:20.361Z,0.01
2023-02-06T06:05:20.833Z,0.02
2023-02-06T06:06:20.192Z,0.01
2023-02-06T06:07:21.500Z,0.00
2023-02-06T06:08:19.926Z,0.00
2023-02-06T06:09:20.329Z,0.00
2023-02-06T06:10:20.718Z,0.01
2023-02-06T06:11:20.088Z,0.01
2023-02-06T06:12:20.603Z,0.02
2023-02-06T06:13:19.923Z,0.01
2023-02-06T06:14:20.351Z,0.01
2023-02-06T06:15:19.713Z,0.01
2023-02-06T06:16:20.193Z,0.01
2023-02-06T06:17:20.588Z,0.05
2023-02-06T06:18:20.000Z,0.01
2023-02-06T06:19:20.348Z,0.03
2023-02-06T06:20:20.732Z,0.02
2023-02-06T06:21:21.133Z,0.02
2023-02-06T06:22:20.580Z,0.03
2023-02-06T06:23:19.964Z,0.03
2023-02-06T06:24:20.417Z,0.03
2023-02-06T06:25:19.756Z,0.12
2023-02-06T06:26:20.138Z,0.19
2023-02-06T06:27:21.494Z,0.05
2023-02-06T06:28:20.898Z,0.07
2023-02-06T06:29:20.328Z,0.23
2023-02-06T06:30:19.878Z,0.22
2023-02-06T06:31:20.212Z,0.11
2023-02-06T06:32:19.509Z,0.15
2023-02-06T06:33:19.888Z,0.23
2023-02-06T06:34:20.278Z,0.25
2023-02-06T06:35:19.643Z,0.32
2023-02-06T06:36:20.084Z,0.39
2023-02-06T06:37:19.432Z,0.48
2023-02-06T06:38:19.843Z,0.57
2023-02-06T06:39:20.258Z,0.69
2023-02-06T06:40:19.608Z,0.79
2023-02-06T06:41:20.041Z,0.95
2023-02-06T06:42:19.723Z,1.05
2023-02-06T06:43:19.884Z,1.17
2023-02-06T06:44:20.299Z,1.34
2023-02-06T06:45:19.712Z,1.52
2023-02-06T06:46:20.137Z,1.70
2023-02-06T06:47:20.470Z,1.89
2023-02-06T06:48:19.946Z,2.12
2023-02-06T06:49:19.328Z,2.40
2023-02-06T06:50:19.772Z,2.62
2023-02-06T06:51:21.151Z,2.73
2023-02-06T06:52:25.026Z,2.92
2023-02-06T06:53:21.068Z,3.42
2023-02-06T06:54:20.473Z,4.24
2023-02-06T06:55:20.763Z,4.83
2023-02-06T06:56:19.177Z,5.21
2023-02-06T06:57:19.676Z,6.17
2023-02-06T06:58:20.047Z,6.74
2023-02-06T06:59:19.486Z,8.25
2023-02-06T07:00:19.906Z,9.65
2023-02-06T07:01:19.331Z,9.30
2023-02-06T07:02:19.655Z,10.19
2023-02-06T07:03:20.169Z,12.12
2023-02-06T07:04:19.442Z,13.60
2023-02-06T07:05:19.944Z,13.66
2023-02-06T07:06:20.171Z,15.30
2023-02-06T07:07:19.603Z,15.43
2023-02-06T07:08:18.977Z,16.30
2023-02-06T07:09:19.394Z,23.54
2023-02-06T07:10:19.779Z,30.12
2023-02-06T07:11:19.228Z,31.23
2023-02-06T07:12:19.558Z,28.42
2023-02-06T07:13:18.913Z,28.70
2023-02-06T07:14:19.293Z,31.82
2023-02-06T07:15:19.697Z,37.88
2023-02-06T07:16:19.166Z,41.20
2023-02-06T07:17:19.480Z,39.82
2023-02-06T07:18:18.813Z,41.66
2023-02-06T07:19:19.247Z,44.76
2023-02-06T07:20:19.699Z,46.97
2023-02-06T07:21:19.084Z,46.06
2023-02-06T07:22:19.502Z,49.16
2023-02-06T07:23:18.883Z,53.29
2023-02-06T07:24:19.333Z,57.68
2023-02-06T07:25:19.757Z,58.76
2023-02-06T07:26:19.201Z,52.24
2023-02-06T07:27:19.617Z,44.51
2023-02-06T07:28:19.125Z,44.50
2023-02-06T07:29:19.434Z,57.52
2023-02-06T07:30:19.794Z,62.88
2023-02-06T07:31:20.276Z,65.74
2023-02-06T07:32:18.700Z,67.25
2023-02-06T07:33:19.183Z,65.61
2023-02-06T07:34:19.608Z,67.62
2023-02-06T07:35:19.850Z,69.91
2023-02-06T07:36:19.330Z,59.24
2023-02-06T07:37:18.704Z,53.76
2023-02-06T07:38:20.087Z,53.53
2023-02-06T07:39:19.509Z,45.70
2023-02-06T07:40:18.883Z,40.20
2023-02-06T07:41:20.257Z,39.73
2023-02-06T07:42:18.664Z,46.34
2023-02-06T07:43:20.041Z,49.63
2023-02-06T07:44:19.505Z,54.09
2023-02-06T07:45:19.795Z,54.47
2023-02-06T07:46:19.278Z,54.61
2023-02-06T07:47:18.642Z,56.04
2023-02-06T07:48:20.034Z,58.05
2023-02-06T07:49:19.507Z,62.77
2023-02-06T07:50:19.859Z,64.43
2023-02-06T07:51:20.290Z,66.57
2023-02-06T07:52:19.656Z,66.71
2023-02-06T07:53:19.978Z,66.45
2023-02-06T07:54:20.711Z,69.20
2023-02-06T07:55:19.204Z,71.01
2023-02-06T07:56:18.345Z,82.02
2023-02-06T07:57:19.005Z,92.29
2023-02-06T07:58:19.173Z,97.10
2023-02-06T07:59:18.554Z,99.15
2023-02-06T08:00:18.999Z,98.16
2023-02-06T08:01:18.566Z,92.79
2023-02-06T08:02:18.843Z,98.25
2023-02-06T08:03:20.288Z,105.12
2023-02-06T08:04:18.692Z,107.03
2023-02-06T08:05:20.049Z,100.06
2023-02-06T08:06:18.454Z,98.80
2023-02-06T08:07:18.982Z,99.39
2023-02-06T08:08:19.223Z,99.48
2023-02-06T08:09:19.654Z,101.61
2023-02-06T08:10:19.103Z,106.16
2023-02-06T08:11:19.429Z,111.10
2023-02-06T08:12:19.003Z,119.41
2023-02-06T08:13:19.224Z,111.69
2023-02-06T08:14:18.654Z,110.07
2023-02-06T08:15:20.027Z,111.61
2023-02-06T08:16:18.513Z,115.58
2023-02-06T08:17:19.862Z,118.61
2023-02-06T08:18:18.203Z,118.30
2023-02-06T08:19:18.681Z,120.18
2023-02-06T08:20:19.968Z,125.27
2023-02-06T08:21:18.408Z,132.27
2023-02-06T08:22:18.803Z,134.34
2023-02-06T08:23:20.618Z,132.37
2023-02-06T08:24:18.573Z,126.81
2023-02-06T08:25:17.999Z,116.31
2023-02-06T08:26:18.381Z,112.91
2023-02-06T08:27:18.803Z,112.22
2023-02-06T08:28:18.189Z,111.90
2023-02-06T08:29:18.577Z,112.57
2023-02-06T08:30:17.938Z,114.14
2023-02-06T08:31:18.801Z,114.40
2023-02-06T08:32:18.782Z,112.62
2023-02-06T08:33:19.092Z,112.14
2023-02-06T08:34:18.563Z,115.78
2023-02-06T08:35:18.889Z,117.50
2023-02-06T08:36:18.372Z,117.41
2023-02-06T08:37:18.803Z,116.36
2023-02-06T08:38:19.041Z,117.46
2023-02-06T08:39:19.440Z,121.12
2023-02-06T08:40:17.843Z,129.63
2023-02-06T08:41:18.415Z,139.28
2023-02-06T08:42:18.698Z,143.69
2023-02-06T08:43:18.116Z,147.58
2023-02-06T08:44:18.498Z,150.47
2023-02-06T08:45:17.818Z,149.31
2023-02-06T08:46:18.256Z,150.50
2023-02-06T08:47:18.661Z,150.66
2023-02-06T08:48:18.003Z,158.84
2023-02-06T08:49:18.448Z,169.25
2023-02-06T08:50:17.778Z,184.05
2023-02-06T08:51:18.366Z,194.06
2023-02-06T08:52:18.578Z,190.99
2023-02-06T08:53:17.988Z,192.86
2023-02-06T08:54:18.391Z,197.22
2023-02-06T08:55:17.794Z,208.28
2023-02-06T08:56:18.159Z,220.43
2023-02-06T08:57:18.569Z,219.50
2023-02-06T08:58:17.910Z,223.83
2023-02-06T08:59:18.323Z,233.42
2023-02-06T09:00:17.693Z,248.11
2023-02-06T09:01:18.345Z,266.41
2023-02-06T09:02:17.550Z,282.05
2023-02-06T09:03:18.000Z,290.04
2023-02-06T09:04:18.312Z,290.75
2023-02-06T09:05:17.708Z,295.05
2023-02-06T09:06:18.140Z,356.27
2023-02-06T09:07:17.545Z,282.42
2023-02-06T09:08:17.873Z,255.65
2023-02-06T09:09:19.247Z,250.83
2023-02-06T09:10:27.008Z,226.07
2023-02-06T09:11:19.129Z,217.00
2023-02-06T09:12:17.509Z,238.73
2023-02-06T09:13:19.433Z,254.40
2023-02-06T09:14:18.276Z,247.52
2023-02-06T09:15:17.619Z,233.88
2023-02-06T09:16:18.101Z,226.36
2023-02-06T09:17:17.428Z,221.70
2023-02-06T09:18:17.843Z,219.44
2023-02-06T09:19:18.312Z,221.92
2023-02-06T09:20:17.611Z,224.53
2023-02-06T09:21:18.055Z,226.31
2023-02-06T09:22:17.402Z,232.18
2023-02-06T09:23:18.071Z,236.45
2023-02-06T09:24:18.231Z,244.32
2023-02-06T09:25:17.603Z,251.41
2023-02-06T09:26:17.994Z,270.86
2023-02-06T09:27:17.349Z,290.69
2023-02-06T09:28:17.820Z,318.70
2023-02-06T09:29:17.137Z,329.87
2023-02-06T09:30:17.542Z,334.95
2023-02-06T09:31:18.046Z,364.30
2023-02-06T09:32:17.296Z,370.36
2023-02-06T09:33:17.705Z,365.77
2023-02-06T09:34:17.090Z,369.51
2023-02-06T09:35:17.462Z,366.36
2023-02-06T09:36:17.884Z,364.46
2023-02-06T09:37:17.311Z,342.26
2023-02-06T09:38:17.631Z,370.17
2023-02-06T09:39:17.028Z,386.48
2023-02-06T09:40:17.407Z,401.42
2023-02-06T09:41:17.842Z,411.57
2023-02-06T09:42:17.216Z,415.90
2023-02-06T09:43:17.736Z,408.98
2023-02-06T09:44:16.995Z,399.22
2023-02-06T09:45:17.438Z,389.20
2023-02-06T09:46:17.903Z,410.49
2023-02-06T09:47:18.234Z,414.40
2023-02-06T09:48:17.645Z,411.60
2023-02-06T09:49:17.105Z,436.46
2023-02-06T09:50:17.429Z,434.95
2023-02-06T09:51:17.846Z,418.15
2023-02-06T09:52:17.224Z,492.47
2023-02-06T09:53:17.652Z,402.25
2023-02-06T09:54:17.005Z,340.33
2023-02-06T09:55:17.727Z,341.45
2023-02-06T09:56:16.781Z,343.80
2023-02-06T09:57:17.192Z,342.65
2023-02-06T09:58:17.663Z,367.51
2023-02-06T09:59:17.686Z,382.09
2023-02-06T10:00:17.405Z,391.96
2023-02-06T10:01:16.858Z,407.20
2023-02-06T10:02:18.134Z,412.24
2023-02-06T10:03:17.562Z,425.19
2023-02-06T10:04:16.993Z,463.11
2023-02-06T10:05:17.317Z,478.77
2023-02-06T10:06:16.681Z,491.64
2023-02-06T10:07:17.606Z,508.46
2023-02-06T10:08:17.450Z,499.04
2023-02-06T10:09:17.728Z,469.40
2023-02-06T10:10:17.164Z,436.25
2023-02-06T10:11:17.530Z,460.44
2023-02-06T10:12:17.811Z,481.70
2023-02-06T10:13:17.305Z,479.87
2023-02-06T10:14:16.607Z,539.29
2023-02-06T10:15:16.971Z,457.94
2023-02-06T10:16:17.401Z,454.08
2023-02-06T10:17:16.745Z,457.29
2023-02-06T10:18:17.147Z,460.15
2023-02-06T10:19:16.640Z,473.76
2023-02-06T10:20:16.881Z,488.75
2023-02-06T10:21:17.272Z,521.39
2023-02-06T10:22:16.623Z,582.41
2023-02-06T10:23:18.003Z,629.71
2023-02-06T10:24:16.395Z,555.60
2023-02-06T10:25:16.941Z,471.27
2023-02-06T10:26:17.271Z,453.69
2023-02-06T10:27:16.582Z,454.16
2023-02-06T10:28:17.109Z,463.87
2023-02-06T10:29:17.434Z,441.73
2023-02-06T10:30:16.778Z,422.40
2023-02-06T10:31:17.829Z,435.69
2023-02-06T10:32:16.540Z,449.73
2023-02-06T10:33:25.234Z,446.34
2023-02-06T10:34:17.296Z,463.04
2023-02-06T10:35:16.747Z,570.34
2023-02-06T10:36:17.131Z,1023.37
2023-02-06T10:37:17.610Z,1042.40
2023-02-06T10:38:16.948Z,1022.80
2023-02-06T10:39:16.307Z,611.80
2023-02-06T10:40:16.817Z,490.65
2023-02-06T10:41:17.106Z,603.53
2023-02-06T10:42:16.474Z,558.07
2023-02-06T10:43:16.989Z,579.62
2023-02-06T10:44:16.274Z,641.18
2023-02-06T10:45:21.873Z,581.71
2023-02-06T10:46:18.054Z,779.57
2023-02-06T10:47:16.408Z,817.97
2023-02-06T10:48:16.828Z,684.04
2023-02-06T10:49:16.234Z,600.53
2023-02-06T10:50:16.572Z,757.01
2023-02-06T10:51:17.013Z,537.55
2023-02-06T10:52:16.337Z,688.33
2023-02-06T10:53:16.769Z,948.61
2023-02-06T10:54:16.143Z,906.04
2023-02-06T10:55:16.579Z,963.10
2023-02-06T10:56:16.914Z,985.69
2023-02-06T10:57:16.290Z,567.17
2023-02-06T10:58:16.685Z,491.36
2023-02-06T10:59:16.065Z,497.92
2023-02-06T11:00:16.430Z,513.81
2023-02-06T11:01:26.073Z,526.51
2023-02-06T11:02:17.328Z,527.08
2023-02-06T11:03:16.912Z,500.78
2023-02-06T11:04:15.954Z,511.35
2023-02-06T11:05:16.354Z,661.47
2023-02-06T11:06:16.753Z,1064.67
2023-02-06T11:07:16.174Z,1127.09
2023-02-06T11:08:16.479Z,1141.67
2023-02-06T11:09:16.802Z,1015.62
2023-02-06T11:10:16.233Z,785.88
2023-02-06T11:11:17.573Z,571.99
2023-02-06T11:12:15.978Z,500.29
2023-02-06T11:13:16.383Z,483.24
2023-02-06T11:14:16.737Z,486.12
2023-02-06T11:15:16.113Z,478.73
2023-02-06T11:16:17.458Z,503.21
2023-02-06T11:17:15.868Z,517.31
2023-02-06T11:18:16.249Z,532.00
2023-02-06T11:19:16.697Z,571.37
2023-02-06T11:20:16.137Z,643.53
2023-02-06T11:21:16.399Z,995.16
2023-02-06T11:22:15.784Z,1151.66
2023-02-06T11:23:16.144Z,1189.80
2023-02-06T11:24:16.545Z,1251.15
2023-02-06T11:25:15.869Z,1281.28
2023-02-06T11:26:17.192Z,1292.14
2023-02-06T11:27:16.608Z,1282.85
2023-02-06T11:28:16.019Z,1278.47
2023-02-06T11:29:16.278Z,1105.33
2023-02-06T11:30:15.663Z,1010.06
2023-02-06T11:31:16.218Z,832.61
2023-02-06T11:32:17.386Z,977.37
2023-02-06T11:33:15.683Z,928.87
2023-02-06T11:34:16.044Z,721.84
2023-02-06T11:35:17.430Z,604.46
2023-02-06T11:36:15.763Z,658.33
2023-02-06T11:37:16.169Z,669.54
2023-02-06T11:38:15.464Z,659.47
2023-02-06T11:39:15.837Z,635.64
2023-02-06T11:40:16.192Z,575.34
2023-02-06T11:41:15.536Z,638.05
2023-02-06T11:42:15.895Z,1015.40
2023-02-06T11:43:16.410Z,1120.83
2023-02-06T11:44:15.592Z,1235.82
2023-02-06T11:45:15.962Z,977.55
2023-02-06T11:46:16.381Z,642.36
2023-02-06T11:47:16.600Z,603.03
2023-02-06T11:48:16.047Z,629.80
2023-02-06T11:49:15.387Z,616.78
2023-02-06T11:50:15.782Z,713.16
2023-02-06T11:51:16.096Z,982.39
2023-02-06T11:52:15.415Z,1004.23
2023-02-06T11:53:15.836Z,692.94
2023-02-06T11:54:16.181Z,565.51
2023-02-06T11:55:15.535Z,643.50
2023-02-06T11:56:15.906Z,994.08
2023-02-06T11:57:16.168Z,649.67
2023-02-06T11:58:16.582Z,654.05
2023-02-06T11:59:16.024Z,660.36
2023-02-06T12:00:15.318Z,629.21
2023-02-06T12:01:15.709Z,546.09
2023-02-06T12:02:16.074Z,544.56
2023-02-06T12:03:15.399Z,574.22
2023-02-06T12:04:15.740Z,547.11
2023-02-06T12:05:16.226Z,514.06
2023-02-06T12:06:15.404Z,803.42
2023-02-06T12:07:15.856Z,1014.03
2023-02-06T12:08:15.119Z,882.14
2023-02-06T12:09:15.458Z,1033.69
2023-02-06T12:10:15.848Z,817.61
2023-02-06T12:11:15.224Z,577.97
2023-02-06T12:12:15.519Z,597.25
2023-02-06T12:13:15.895Z,735.88
2023-02-06T12:14:15.233Z,634.58
2023-02-06T12:15:39.779Z,662.58
2023-02-06T12:16:17.041Z,643.80
2023-02-06T12:17:15.278Z,587.20
2023-02-06T12:18:15.664Z,562.16
2023-02-06T12:19:15.944Z,522.52
2023-02-06T12:20:16.290Z,452.98
2023-02-06T12:21:15.776Z,429.19
2023-02-06T12:22:15.106Z,419.79
2023-02-06T12:23:15.422Z,462.55
2023-02-06T12:24:15.809Z,437.16
2023-02-06T12:25:15.170Z,543.99
2023-02-06T12:26:15.574Z,525.65
2023-02-06T12:27:14.880Z,545.45
2023-02-06T12:28:15.348Z,520.74
2023-02-06T12:29:15.660Z,517.34
2023-02-06T12:30:14.971Z,498.71
2023-02-06T12:31:15.520Z,477.76
2023-02-06T12:32:15.856Z,518.44
2023-02-06T12:33:15.043Z,479.21
2023-02-06T12:34:15.651Z,457.53
2023-02-06T12:35:14.734Z,370.20
2023-02-06T12:36:15.105Z,372.27
2023-02-06T12:37:15.449Z,350.19
2023-02-06T12:38:14.730Z,344.38
2023-02-06T12:39:16.599Z,401.28
2023-02-06T12:40:15.393Z,453.33
2023-02-06T12:41:15.492Z,507.24
2023-02-06T12:42:14.820Z,563.82
2023-02-06T12:43:15.191Z,637.25
2023-02-06T12:44:14.529Z,621.04
2023-02-06T12:45:14.898Z,549.61
2023-02-06T12:46:16.211Z,512.04
2023-02-06T12:47:15.657Z,515.54
2023-02-06T12:48:15.263Z,532.28
2023-02-06T12:49:15.381Z,564.59
2023-02-06T12:50:15.679Z,529.30
2023-02-06T12:51:16.084Z,532.16
2023-02-06T12:52:15.512Z,547.80
2023-02-06T12:53:15.763Z,549.36
2023-02-06T12:54:15.185Z,556.93
2023-02-06T12:55:14.511Z,556.22
2023-02-06T12:56:14.873Z,551.23
2023-02-06T12:57:15.269Z,539.52
2023-02-06T12:58:14.677Z,520.68